createdAt,value
2018-07-10T00:00:19.133Z,24.80
2018-07-10T00:04:05.361Z,24.50
2018-07-10T00:06:52.652Z,24.40
2018-07-10T00:11:36.081Z,24.50
2018-07-10T00:14:06.421Z,24.20
2018-07-10T00:16:35.795Z,24.30
2018-07-10T00:19:05.179Z,24.40
2018-07-10T00:21:34.705Z,24.50
2018-07-10T00:24:04.065Z,24.50
2018-07-10T00:26:33.511Z,24.60
2018-07-10T00:29:02.903Z,24.60
2018-07-10T00:31:32.310Z,24.60
2018-07-10T00:34:01.806Z,24.60
2018-07-10T00:36:31.206Z,24.60
2018-07-10T00:39:11.815Z,24.60
2018-07-10T00:41:42.066Z,24.60
2018-07-10T00:44:11.567Z,24.60
2018-07-10T00:46:41.707Z,24.60
2018-07-10T00:49:11.739Z,24.70
2018-07-10T00:51:41.971Z,24.70
2018-07-10T00:54:11.622Z,24.70
2018-07-10T00:56:41.322Z,24.70
2018-07-10T00:59:10.754Z,24.70
2018-07-10T01:01:40.197Z,24.70
2018-07-10T01:04:09.611Z,24.70
2018-07-10T01:06:39.033Z,24.70
2018-07-10T01:09:13.605Z,24.60
2018-07-10T01:11:43.283Z,24.70
2018-07-10T01:14:12.360Z,24.70
2018-07-10T01:16:42.144Z,24.60
2018-07-10T01:19:16.138Z,24.70
2018-07-10T01:21:48.456Z,24.60
2018-07-10T01:24:19.232Z,24.60
2018-07-10T01:26:50.327Z,24.60
2018-07-10T01:29:25.509Z,24.60
2018-07-10T01:31:55.432Z,24.60
2018-07-10T01:34:25.216Z,24.60
2018-07-10T01:36:55.026Z,24.60
2018-07-10T01:39:24.526Z,24.60
2018-07-10T01:41:53.986Z,24.60
2018-07-10T01:44:23.436Z,24.60
2018-07-10T01:46:52.998Z,24.60
2018-07-10T01:49:22.508Z,24.60
2018-07-10T01:51:51.953Z,24.60
2018-07-10T01:54:21.376Z,24.60
2018-07-10T01:56:50.935Z,24.60
2018-07-10T01:59:22.682Z,24.60
2018-07-10T02:01:51.846Z,24.60
2018-07-10T02:04:22.269Z,24.50
2018-07-10T02:06:51.679Z,24.50
2018-07-10T02:09:22.337Z,24.50
2018-07-10T02:11:52.722Z,24.50
2018-07-10T02:14:22.128Z,24.50
2018-07-10T02:16:51.552Z,24.50
2018-07-10T02:19:22.434Z,24.50
2018-07-10T02:21:51.866Z,24.50
2018-07-10T02:24:26.178Z,24.50
2018-07-10T02:26:55.688Z,24.50
2018-07-10T02:29:25.111Z,24.50
2018-07-10T02:31:54.523Z,24.50
2018-07-10T02:34:24.025Z,24.50
2018-07-10T02:36:53.506Z,24.50
2018-07-10T02:39:22.949Z,24.50
2018-07-10T02:41:52.428Z,24.40
2018-07-10T02:44:21.846Z,24.40
2018-07-10T02:46:51.329Z,24.40
2018-07-10T02:49:22.620Z,24.40
2018-07-10T02:52:02.063Z,24.40
2018-07-10T02:54:38.778Z,24.40
2018-07-10T02:57:10.737Z,24.30
2018-07-10T02:59:42.465Z,24.30
2018-07-10T03:02:23.248Z,24.30
2018-07-10T03:05:05.689Z,24.30
2018-07-10T03:07:37.252Z,24.30
2018-07-10T03:10:06.708Z,24.30
2018-07-10T03:12:36.904Z,24.30
2018-07-10T03:15:13.482Z,24.30
2018-07-10T03:17:42.968Z,24.20
2018-07-10T03:20:12.728Z,24.20
2018-07-10T03:22:42.153Z,24.20
2018-07-10T03:25:11.648Z,24.20
2018-07-10T03:27:41.099Z,24.10
2018-07-10T03:30:10.562Z,24.10
2018-07-10T03:32:40.007Z,24.10
2018-07-10T03:35:09.518Z,24.00
2018-07-10T03:37:38.961Z,24.00
2018-07-10T03:40:08.420Z,24.00
2018-07-10T03:42:37.899Z,24.00
2018-07-10T03:45:07.349Z,23.90
2018-07-10T03:47:36.788Z,23.90
2018-07-10T03:50:06.204Z,23.90
2018-07-10T03:52:36.872Z,23.90
2018-07-10T03:55:11.275Z,23.90
2018-07-10T03:57:40.721Z,23.80
2018-07-10T04:00:14.281Z,23.80
2018-07-10T04:02:49.713Z,23.80
2018-07-10T04:05:21.034Z,23.70
2018-07-10T04:07:53.664Z,23.70
2018-07-10T04:10:28.426Z,23.70
2018-07-10T04:13:01.384Z,23.70
2018-07-10T04:15:30.864Z,23.70
2018-07-10T04:18:21.627Z,23.60
2018-07-10T04:21:16.282Z,23.60
2018-07-10T04:23:48.098Z,23.50
2018-07-10T04:26:21.009Z,23.50
2018-07-10T04:28:59.189Z,23.50
2018-07-10T04:31:46.126Z,23.50
2018-07-10T04:34:15.767Z,23.40
2018-07-10T04:36:45.250Z,23.40
2018-07-10T04:39:14.770Z,23.40
2018-07-10T04:41:46.608Z,23.40
2018-07-10T04:44:16.193Z,23.30
2018-07-10T04:46:52.557Z,23.30
2018-07-10T04:49:33.937Z,23.30
2018-07-10T04:52:17.796Z,23.20
2018-07-10T04:54:57.589Z,23.20
2018-07-10T04:57:33.109Z,23.10
2018-07-10T05:00:06.686Z,23.10
2018-07-10T05:02:36.233Z,23.10
2018-07-10T05:05:05.759Z,23.10
2018-07-10T05:07:35.828Z,23.10
2018-07-10T05:10:05.678Z,23.10
2018-07-10T05:12:35.177Z,23.10
2018-07-10T05:15:04.620Z,23.00
2018-07-10T05:17:34.126Z,23.00
2018-07-10T05:20:03.655Z,23.00
2018-07-10T05:22:33.132Z,22.90
2018-07-10T05:25:02.699Z,22.90
2018-07-10T05:27:32.214Z,22.90
2018-07-10T05:30:02.222Z,22.80
2018-07-10T05:32:32.931Z,22.80
2018-07-10T05:35:03.701Z,22.80
2018-07-10T05:37:34.952Z,22.70
2018-07-10T05:40:10.113Z,22.70
2018-07-10T05:42:46.959Z,22.60
2018-07-10T05:45:21.816Z,22.60
2018-07-10T05:47:57.443Z,22.50
2018-07-10T05:50:32.205Z,22.50
2018-07-10T05:53:01.697Z,22.50
2018-07-10T05:55:31.957Z,22.50
2018-07-10T05:58:02.137Z,22.50
2018-07-10T06:00:32.086Z,22.40
2018-07-10T06:03:01.559Z,22.40
2018-07-10T06:05:31.067Z,22.40
2018-07-10T06:08:00.602Z,22.40
2018-07-10T06:10:30.124Z,22.40
2018-07-10T06:13:01.042Z,22.40
2018-07-10T06:15:30.734Z,22.40
2018-07-10T06:18:00.240Z,22.40
2018-07-10T06:20:29.749Z,22.30
2018-07-10T06:22:59.337Z,22.30
2018-07-10T06:25:35.468Z,22.30
2018-07-10T06:28:11.470Z,22.30
2018-07-10T06:30:41.810Z,22.30
2018-07-10T06:33:23.259Z,22.30
2018-07-10T06:36:07.827Z,22.30
2018-07-10T06:38:51.290Z,22.20
2018-07-10T06:41:20.665Z,22.20
2018-07-10T06:43:57.506Z,22.20
2018-07-10T06:46:46.193Z,22.20
2018-07-10T06:49:28.282Z,22.20
2018-07-10T06:52:09.772Z,22.20
2018-07-10T06:55:18.374Z,22.20
2018-07-10T06:57:52.533Z,22.00
2018-07-10T07:00:22.011Z,22.10
2018-07-10T07:02:51.531Z,22.10
2018-07-10T07:05:20.988Z,22.10
2018-07-10T07:07:50.459Z,22.10
2018-07-10T07:10:19.955Z,22.10
2018-07-10T07:12:49.429Z,22.10
2018-07-10T07:15:19.854Z,22.00
2018-07-10T07:17:51.937Z,22.00
2018-07-10T07:20:22.770Z,22.00
2018-07-10T07:22:52.955Z,22.00
2018-07-10T07:25:22.357Z,22.00
2018-07-10T07:27:51.794Z,22.00
2018-07-10T07:30:21.240Z,22.00
2018-07-10T07:32:50.698Z,21.90
2018-07-10T07:35:20.186Z,21.90
2018-07-10T07:37:49.711Z,21.90
2018-07-10T07:40:19.152Z,21.90
2018-07-10T07:42:48.622Z,21.90
2018-07-10T07:45:18.035Z,21.90
2018-07-10T07:47:47.499Z,21.90
2018-07-10T07:50:16.925Z,21.90
2018-07-10T07:52:46.482Z,21.80
2018-07-10T07:55:16.539Z,21.80
2018-07-10T07:57:46.036Z,21.80
2018-07-10T08:00:15.442Z,21.80
2018-07-10T08:02:44.883Z,21.80
2018-07-10T08:05:14.364Z,21.80
2018-07-10T08:07:43.824Z,21.80
2018-07-10T08:10:13.330Z,21.80
2018-07-10T08:12:42.778Z,21.80
2018-07-10T08:15:12.720Z,21.80
2018-07-10T08:17:42.157Z,21.80
2018-07-10T08:20:11.623Z,21.80
2018-07-10T08:22:41.041Z,21.70
2018-07-10T08:25:10.615Z,21.70
2018-07-10T08:27:40.121Z,21.70
2018-07-10T08:30:09.555Z,21.70
2018-07-10T08:32:39.434Z,21.70
2018-07-10T08:35:08.877Z,21.70
2018-07-10T08:37:38.329Z,21.70
2018-07-10T08:40:07.808Z,21.70
2018-07-10T08:42:37.363Z,21.70
2018-07-10T08:45:07.044Z,21.70
2018-07-10T08:47:37.564Z,21.70
2018-07-10T08:50:07.003Z,21.70
2018-07-10T08:52:36.963Z,21.70
2018-07-10T08:55:06.499Z,21.60
2018-07-10T08:57:36.154Z,21.60
2018-07-10T09:00:05.778Z,21.60
2018-07-10T09:02:35.388Z,21.50
2018-07-10T09:05:04.880Z,21.50
2018-07-10T09:07:34.260Z,21.50
2018-07-10T09:10:03.715Z,21.50
2018-07-10T09:12:33.190Z,21.50
2018-07-10T09:15:02.734Z,21.50
2018-07-10T09:17:32.257Z,21.50
2018-07-10T09:20:04.290Z,21.50
2018-07-10T09:22:33.903Z,21.50
2018-07-10T09:25:05.570Z,21.50
2018-07-10T09:27:35.045Z,21.50
2018-07-10T09:30:04.525Z,21.50
2018-07-10T09:32:39.385Z,21.50
2018-07-10T09:35:08.881Z,21.50
2018-07-10T09:37:44.970Z,21.50
2018-07-10T09:40:15.690Z,21.50
2018-07-10T09:42:55.419Z,21.40
2018-07-10T09:45:28.229Z,21.40
2018-07-10T09:47:57.688Z,21.40
2018-07-10T09:50:27.252Z,21.40
2018-07-10T09:52:56.828Z,21.40
2018-07-10T09:55:26.300Z,21.40
2018-07-10T09:57:58.156Z,21.40
2018-07-10T10:00:32.910Z,21.40
2018-07-10T10:03:03.061Z,21.40
2018-07-10T10:05:42.140Z,21.40
2018-07-10T10:08:11.706Z,21.40
2018-07-10T10:10:41.445Z,21.40
2018-07-10T10:13:10.908Z,21.40
2018-07-10T10:15:40.401Z,21.40
2018-07-10T10:18:10.417Z,21.40
2018-07-10T10:20:41.489Z,21.40
2018-07-10T10:23:13.070Z,21.40
2018-07-10T10:25:47.992Z,21.40
2018-07-10T10:28:17.805Z,21.40
2018-07-10T10:30:47.257Z,21.40
2018-07-10T10:33:16.724Z,21.50
2018-07-10T10:35:46.262Z,21.50
2018-07-10T10:38:16.103Z,21.50
2018-07-10T10:40:48.673Z,21.50
2018-07-10T10:43:17.803Z,21.50
2018-07-10T10:45:47.551Z,21.50
2018-07-10T10:48:18.632Z,21.50
2018-07-10T10:50:51.387Z,21.50
2018-07-10T10:53:22.030Z,21.50
2018-07-10T10:55:51.523Z,21.50
2018-07-10T10:58:21.989Z,21.50
2018-07-10T11:00:51.677Z,21.60
2018-07-10T11:03:21.140Z,21.60
2018-07-10T11:05:50.627Z,21.60
2018-07-10T11:08:22.916Z,21.60
2018-07-10T11:10:52.688Z,21.60
2018-07-10T11:13:23.297Z,21.60
2018-07-10T11:15:52.773Z,21.60
2018-07-10T11:18:36.521Z,21.60
2018-07-10T11:21:19.535Z,21.60
2018-07-10T11:23:54.617Z,21.60
2018-07-10T11:26:32.421Z,21.50
2018-07-10T11:29:02.736Z,21.50
2018-07-10T11:31:32.235Z,21.50
2018-07-10T11:34:01.713Z,21.50
2018-07-10T11:36:31.289Z,21.50
2018-07-10T11:39:07.222Z,21.50
2018-07-10T11:41:46.901Z,21.50
2018-07-10T11:44:16.411Z,21.50
2018-07-10T11:46:46.481Z,21.50
2018-07-10T11:49:15.926Z,21.60
2018-07-10T11:51:45.554Z,21.50
2018-07-10T11:54:15.045Z,21.60
2018-07-10T11:56:44.548Z,21.60
2018-07-10T11:59:14.084Z,21.60
2018-07-10T12:01:43.596Z,21.60
2018-07-10T12:04:13.029Z,21.60
2018-07-10T12:06:50.048Z,21.60
2018-07-10T12:09:19.868Z,21.50
2018-07-10T12:11:49.374Z,21.50
2018-07-10T12:14:18.832Z,21.60
2018-07-10T12:16:48.284Z,21.60
2018-07-10T12:19:17.781Z,21.60
2018-07-10T12:21:47.421Z,21.60
2018-07-10T12:24:16.957Z,21.60
2018-07-10T12:26:46.458Z,21.60
2018-07-10T12:29:16.177Z,21.60
2018-07-10T12:31:45.702Z,21.60
2018-07-10T12:34:15.115Z,21.60
2018-07-10T12:36:44.501Z,21.60
2018-07-10T12:39:13.608Z,21.60
2018-07-10T12:41:43.161Z,21.70
2018-07-10T12:44:12.625Z,21.70
2018-07-10T12:46:42.073Z,21.70
2018-07-10T12:49:11.602Z,21.70
2018-07-10T12:51:41.064Z,21.70
2018-07-10T12:54:10.528Z,21.70
2018-07-10T12:56:40.011Z,21.70
2018-07-10T12:59:09.641Z,21.70
2018-07-10T13:01:39.096Z,21.70
2018-07-10T13:04:08.531Z,21.70
2018-07-10T13:06:37.915Z,21.70
2018-07-10T13:09:07.358Z,21.70
2018-07-10T13:11:36.782Z,21.70
2018-07-10T13:14:06.218Z,21.70
2018-07-10T13:16:35.764Z,21.70
2018-07-10T13:19:05.378Z,21.70
2018-07-10T13:21:34.818Z,21.70
2018-07-10T13:24:04.314Z,21.80
2018-07-10T13:26:33.764Z,21.80
2018-07-10T13:29:03.242Z,21.80
2018-07-10T13:31:32.865Z,21.80
2018-07-10T13:34:02.301Z,21.80
2018-07-10T13:36:31.789Z,21.80
2018-07-10T13:39:01.595Z,21.80
2018-07-10T13:41:31.046Z,21.80
2018-07-10T13:44:00.607Z,21.90
2018-07-10T13:46:30.207Z,21.90
2018-07-10T13:48:59.629Z,21.90
2018-07-10T13:51:29.299Z,21.90
2018-07-10T13:53:58.745Z,21.90
2018-07-10T13:56:28.190Z,21.90
2018-07-10T13:58:58.000Z,21.90
2018-07-10T14:01:27.476Z,21.90
2018-07-10T14:03:56.978Z,21.90
2018-07-10T14:06:26.381Z,21.90
2018-07-10T14:08:55.869Z,21.90
2018-07-10T14:11:26.344Z,21.90
2018-07-10T14:13:55.889Z,22.00
2018-07-10T14:16:25.366Z,22.00
2018-07-10T14:18:59.019Z,22.00
2018-07-10T14:21:28.555Z,22.00
2018-07-10T14:23:59.077Z,22.00
2018-07-10T14:26:28.586Z,22.00
2018-07-10T14:28:58.071Z,22.10
2018-07-10T14:31:27.526Z,22.10
2018-07-10T14:33:56.977Z,22.10
2018-07-10T14:36:26.497Z,22.10
2018-07-10T14:38:56.032Z,22.10
2018-07-10T14:41:27.280Z,22.10
2018-07-10T14:43:56.770Z,22.10
2018-07-10T14:46:26.637Z,22.10
2018-07-10T14:49:01.299Z,22.10
2018-07-10T14:51:43.144Z,22.10
2018-07-10T14:54:13.037Z,22.10
2018-07-10T14:56:42.975Z,22.20
2018-07-10T14:59:12.665Z,22.20
2018-07-10T15:01:42.778Z,22.20
2018-07-10T15:04:12.152Z,22.20
2018-07-10T15:06:41.577Z,22.20
2018-07-10T15:09:11.062Z,22.20
2018-07-10T15:11:42.082Z,22.20
2018-07-10T15:14:12.256Z,22.20
2018-07-10T15:16:46.928Z,22.20
2018-07-10T15:19:17.088Z,22.20
2018-07-10T15:21:46.508Z,22.20
2018-07-10T15:24:16.239Z,22.30
2018-07-10T15:26:45.697Z,22.30
2018-07-10T15:29:20.480Z,22.30
2018-07-10T15:31:50.057Z,22.30
2018-07-10T15:34:19.493Z,22.30
2018-07-10T15:36:48.929Z,22.30
2018-07-10T15:39:18.895Z,22.30
2018-07-10T15:41:50.158Z,22.40
2018-07-10T15:44:19.556Z,22.40
2018-07-10T15:46:49.265Z,22.40
2018-07-10T15:49:18.747Z,22.40
2018-07-10T15:51:48.302Z,22.40
2018-07-10T15:54:17.750Z,22.40
2018-07-10T15:56:47.179Z,22.50
2018-07-10T15:59:16.974Z,22.50
2018-07-10T16:01:46.507Z,22.50
2018-07-10T16:04:15.990Z,22.50
2018-07-10T16:06:45.506Z,22.50
2018-07-10T16:09:21.828Z,22.50
2018-07-10T16:12:00.032Z,22.50
2018-07-10T16:14:29.645Z,22.50
2018-07-10T16:16:59.437Z,22.60
2018-07-10T16:19:35.305Z,22.60
2018-07-10T16:22:11.537Z,22.60
2018-07-10T16:24:47.887Z,22.60
2018-07-10T16:27:36.468Z,22.60
2018-07-10T16:30:06.369Z,22.60
2018-07-10T16:32:40.571Z,22.60
2018-07-10T16:35:10.724Z,22.60
2018-07-10T16:37:40.166Z,22.60
2018-07-10T16:40:09.930Z,22.70
2018-07-10T16:42:51.152Z,22.70
2018-07-10T16:45:29.715Z,22.70
2018-07-10T16:48:20.992Z,22.60
2018-07-10T16:51:08.761Z,22.60
2018-07-10T16:53:38.798Z,22.60
2018-07-10T16:56:08.309Z,22.70
2018-07-10T16:58:40.346Z,22.70
2018-07-10T17:01:10.247Z,22.70
2018-07-10T17:03:39.937Z,22.70
2018-07-10T17:06:09.676Z,22.70
2018-07-10T17:08:47.302Z,22.70
2018-07-10T17:11:16.925Z,22.70
2018-07-10T17:13:46.644Z,22.70
2018-07-10T17:16:20.362Z,22.80
2018-07-10T17:18:50.187Z,22.80
2018-07-10T17:21:19.668Z,22.80
2018-07-10T17:23:51.855Z,22.80
2018-07-10T17:26:21.464Z,22.80
2018-07-10T17:28:51.861Z,22.80
2018-07-10T17:31:21.594Z,22.80
2018-07-10T17:33:51.210Z,22.80
2018-07-10T17:36:22.301Z,22.80
2018-07-10T17:38:51.844Z,22.80
2018-07-10T17:41:21.613Z,22.80
2018-07-10T17:43:51.647Z,22.80
2018-07-10T17:46:21.360Z,22.80
2018-07-10T17:48:50.912Z,22.80
2018-07-10T17:51:21.521Z,22.80
2018-07-10T17:53:51.127Z,22.70
2018-07-10T17:56:21.235Z,22.80
2018-07-10T17:58:50.773Z,22.70
2018-07-10T18:01:21.912Z,22.70
2018-07-10T18:03:51.425Z,22.70
2018-07-10T18:06:21.791Z,22.70
2018-07-10T18:08:53.611Z,22.70
2018-07-10T18:11:23.219Z,22.70
2018-07-10T18:13:53.452Z,22.70
2018-07-10T18:16:26.863Z,22.70
2018-07-10T18:18:56.824Z,22.70
2018-07-10T18:21:27.139Z,22.70
2018-07-10T18:23:56.873Z,22.70
2018-07-10T18:26:26.369Z,22.70
2018-07-10T18:28:56.202Z,22.70
2018-07-10T18:31:25.757Z,22.70
2018-07-10T18:33:55.576Z,22.70
2018-07-10T18:36:24.745Z,22.70
2018-07-10T18:38:54.210Z,22.70
2018-07-10T18:41:23.715Z,22.70
2018-07-10T18:43:53.765Z,22.70
2018-07-10T18:46:23.340Z,22.70
2018-07-10T18:48:52.873Z,22.70
2018-07-10T18:51:22.590Z,22.70
2018-07-10T18:53:52.097Z,22.70
2018-07-10T18:56:22.725Z,22.70
2018-07-10T18:59:08.140Z,22.70
2018-07-10T19:02:02.257Z,22.70
2018-07-10T19:04:45.653Z,22.60
2018-07-10T19:07:14.945Z,22.60
2018-07-10T19:09:44.486Z,22.60
2018-07-10T19:12:15.472Z,22.60
2018-07-10T19:14:45.562Z,22.70
2018-07-10T19:17:22.290Z,22.70
2018-07-10T19:19:56.006Z,22.70
2018-07-10T19:22:29.460Z,22.70
2018-07-10T19:25:00.676Z,22.60
2018-07-10T19:27:33.368Z,22.70
2018-07-10T19:30:07.815Z,22.70
2018-07-10T19:32:38.611Z,22.60
2018-07-10T19:35:08.149Z,22.60
2018-07-10T19:37:38.154Z,22.60
2018-07-10T19:40:08.069Z,22.60
2018-07-10T19:42:40.498Z,22.60
2018-07-10T19:45:10.336Z,22.60
2018-07-10T19:47:39.806Z,22.60
2018-07-10T19:50:15.183Z,22.60
2018-07-10T19:52:49.296Z,22.60
2018-07-10T19:55:19.042Z,22.50
2018-07-10T19:58:05.129Z,22.50
2018-07-10T20:00:51.607Z,22.50
2018-07-10T20:03:38.163Z,22.50
2018-07-10T20:06:15.357Z,22.40
2018-07-10T20:08:47.244Z,22.40
2018-07-10T20:11:31.464Z,22.40
2018-07-10T20:14:01.025Z,22.40
2018-07-10T20:16:39.293Z,22.40
2018-07-10T20:19:41.851Z,22.40
2018-07-10T20:22:56.413Z,22.30
2018-07-10T20:27:52.603Z,22.20
2018-07-10T20:30:40.837Z,21.80
2018-07-10T20:34:18.725Z,21.80
2018-07-10T20:36:54.042Z,21.80
2018-07-10T20:39:33.588Z,21.90
2018-07-10T20:42:04.447Z,21.90
2018-07-10T20:44:50.626Z,21.90
2018-07-10T20:47:20.673Z,21.90
2018-07-10T20:50:06.837Z,21.90
2018-07-10T20:52:55.060Z,21.90
2018-07-10T20:55:31.423Z,21.90
2018-07-10T20:58:09.597Z,21.90
2018-07-10T21:00:42.326Z,21.90
2018-07-10T21:03:27.759Z,21.90
2018-07-10T21:06:05.001Z,21.90
2018-07-10T21:08:44.478Z,21.80
2018-07-10T21:11:17.805Z,21.80
2018-07-10T21:13:55.698Z,21.80
2018-07-10T21:16:38.783Z,21.80
2018-07-10T21:19:31.980Z,21.80
2018-07-10T21:22:17.794Z,21.70
2018-07-10T21:24:59.135Z,21.70
2018-07-10T21:28:08.625Z,21.70
2018-07-10T21:30:45.198Z,21.60
2018-07-10T21:33:35.978Z,21.60
2018-07-10T21:36:16.688Z,21.60
2018-07-10T21:39:13.681Z,21.60
2018-07-10T21:42:00.803Z,21.50
2018-07-10T21:44:43.845Z,21.50
2018-07-10T21:47:30.477Z,21.50
2018-07-10T21:50:02.655Z,21.40
2018-07-10T21:52:32.166Z,21.40
2018-07-10T21:55:01.950Z,21.40
2018-07-10T21:57:37.042Z,21.40
2018-07-10T22:00:06.544Z,21.40
2018-07-10T22:02:36.102Z,21.40
2018-07-10T22:05:05.694Z,21.40
2018-07-10T22:07:35.184Z,21.40
2018-07-10T22:10:06.246Z,21.40
2018-07-10T22:12:46.283Z,21.40
2018-07-10T22:15:15.809Z,21.30
2018-07-10T22:17:45.345Z,21.30
2018-07-10T22:20:14.861Z,21.30
2018-07-10T22:22:44.377Z,21.30
2018-07-10T22:25:13.928Z,21.30
2018-07-10T22:27:43.796Z,21.30
2018-07-10T22:30:21.764Z,21.20
2018-07-10T22:32:56.881Z,21.20
2018-07-10T22:35:26.421Z,21.20
2018-07-10T22:37:55.912Z,21.20
2018-07-10T22:40:25.380Z,21.20
2018-07-10T22:42:54.793Z,21.10
2018-07-10T22:45:24.243Z,21.10
2018-07-10T22:47:53.712Z,21.10
2018-07-10T22:50:24.536Z,21.10
2018-07-10T22:52:59.791Z,21.10
2018-07-10T22:55:31.299Z,21.00
2018-07-10T22:58:06.866Z,21.00
2018-07-10T23:00:38.566Z,21.00
2018-07-10T23:03:23.936Z,21.00
2018-07-10T23:05:54.028Z,20.90
2018-07-10T23:08:31.489Z,20.90
2018-07-10T23:11:02.993Z,20.90
2018-07-10T23:13:38.365Z,20.90
2018-07-10T23:16:07.939Z,20.90
2018-07-10T23:18:37.461Z,20.80
2018-07-10T23:21:06.925Z,20.80
2018-07-10T23:23:36.587Z,20.80
2018-07-10T23:26:06.195Z,20.80
2018-07-10T23:28:35.717Z,20.80
2018-07-10T23:31:05.519Z,20.80
2018-07-10T23:33:35.413Z,20.80
2018-07-10T23:36:06.855Z,20.80
2018-07-10T23:39:17.431Z,20.70
2018-07-10T23:41:57.080Z,20.60
2018-07-10T23:44:33.906Z,20.60
2018-07-10T23:47:10.487Z,20.60
2018-07-10T23:49:39.980Z,20.60
2018-07-10T23:52:29.109Z,20.60
2018-07-10T23:54:58.601Z,20.60
2018-07-10T23:57:28.086Z,20.50
2018-07-10T23:59:57.592Z,20.50
